createdAt,value
2022-08-20T00:01:01.774Z,6.95
2022-08-20T00:02:06.178Z,5.90
2022-08-20T00:03:11.343Z,6.85
2022-08-20T00:04:15.049Z,7.25
2022-08-20T00:05:22.913Z,6.95
2022-08-20T00:06:26.025Z,7.47
2022-08-20T00:07:27.978Z,6.38
2022-08-20T00:08:31.889Z,6.57
2022-08-20T00:09:36.778Z,6.70
2022-08-20T00:10:45.263Z,7.35
2022-08-20T00:11:51.053Z,7.20
2022-08-20T00:12:54.233Z,6.95
2022-08-20T00:13:59.206Z,8.68
2022-08-20T00:15:02.845Z,7.90
2022-08-20T00:16:06.552Z,7.63
2022-08-20T00:17:09.754Z,7.30
2022-08-20T00:18:12.406Z,7.32
2022-08-20T00:19:15.665Z,8.15
2022-08-20T00:20:20.470Z,8.02
2022-08-20T00:21:25.611Z,8.40
2022-08-20T00:22:28.044Z,8.15
2022-08-20T00:23:31.520Z,7.43
2022-08-20T00:24:34.655Z,8.38
2022-08-20T00:25:38.245Z,7.45
2022-08-20T00:26:51.745Z,9.45
2022-08-20T00:27:56.063Z,8.65
2022-08-20T00:28:58.161Z,8.52
2022-08-20T00:30:01.238Z,8.48
2022-08-20T00:31:06.253Z,8.80
2022-08-20T00:32:08.247Z,8.77
2022-08-20T00:33:14.290Z,8.85
2022-08-20T00:34:16.302Z,9.20
2022-08-20T00:35:21.273Z,8.45
2022-08-20T00:36:32.281Z,9.57
2022-08-20T00:37:36.022Z,8.07
2022-08-20T00:38:40.409Z,10.32
2022-08-20T00:39:43.637Z,9.88
2022-08-20T00:40:50.022Z,9.93
2022-08-20T00:41:54.427Z,10.00
2022-08-20T00:42:59.135Z,9.02
2022-08-20T00:44:10.099Z,9.77
2022-08-20T00:45:13.271Z,8.82
2022-08-20T00:46:18.752Z,8.75
2022-08-20T00:47:20.869Z,9.05
2022-08-20T00:48:25.261Z,10.20
2022-08-20T00:49:29.431Z,9.20
2022-08-20T00:50:35.281Z,10.18
2022-08-20T00:51:41.348Z,9.55
2022-08-20T00:52:50.026Z,9.10
2022-08-20T00:53:52.768Z,10.23
2022-08-20T00:54:59.015Z,9.63
2022-08-20T00:56:01.271Z,9.80
2022-08-20T00:57:09.827Z,8.90
2022-08-20T00:58:12.395Z,10.05
2022-08-20T00:59:19.017Z,8.52
2022-08-20T01:00:23.946Z,9.48
2022-08-20T01:01:27.055Z,11.23
2022-08-20T01:02:31.768Z,9.40
2022-08-20T01:03:35.145Z,8.95
2022-08-20T01:04:37.725Z,8.45
2022-08-20T01:05:46.974Z,9.38
2022-08-20T01:06:48.995Z,9.55
2022-08-20T01:07:53.809Z,10.00
2022-08-20T01:08:56.668Z,9.93
2022-08-20T01:10:00.422Z,9.90
2022-08-20T01:11:12.539Z,9.57
2022-08-20T01:12:17.608Z,10.10
2022-08-20T01:13:24.488Z,9.55
2022-08-20T01:14:36.479Z,9.15
2022-08-20T01:15:43.310Z,10.70
2022-08-20T01:16:49.311Z,10.15
2022-08-20T01:17:54.942Z,9.07
2022-08-20T01:18:58.538Z,10.05
2022-08-20T01:20:06.386Z,9.10
2022-08-20T01:21:08.703Z,9.02
2022-08-20T01:22:32.697Z,9.90
2022-08-20T01:23:43.380Z,9.13
2022-08-20T01:24:46.655Z,9.43
2022-08-20T01:25:55.651Z,10.95
2022-08-20T01:27:02.563Z,9.57
2022-08-20T01:28:05.260Z,9.40
2022-08-20T01:29:11.632Z,9.75
2022-08-20T01:30:13.717Z,10.10
2022-08-20T01:31:19.996Z,9.32
2022-08-20T01:32:22.264Z,10.45
2022-08-20T01:33:25.645Z,10.00
2022-08-20T01:34:27.661Z,8.95
2022-08-20T01:35:30.975Z,9.95
2022-08-20T01:36:36.195Z,9.60
2022-08-20T01:37:39.308Z,9.57
2022-08-20T01:38:53.175Z,9.60
2022-08-20T01:39:56.904Z,10.60
2022-08-20T01:41:18.133Z,9.18
2022-08-20T01:42:33.594Z,10.65
2022-08-20T01:43:37.249Z,9.88
2022-08-20T01:44:42.574Z,10.13
2022-08-20T01:45:46.163Z,11.13
2022-08-20T01:46:57.616Z,10.13
2022-08-20T01:48:01.094Z,9.13
2022-08-20T01:49:12.472Z,9.68
2022-08-20T01:50:23.022Z,10.80
2022-08-20T01:51:28.392Z,10.55
2022-08-20T01:52:38.695Z,9.80
2022-08-20T01:53:43.998Z,9.63
2022-08-20T01:54:47.039Z,10.27
2022-08-20T01:55:48.995Z,10.52
2022-08-20T01:56:57.743Z,8.90
2022-08-20T01:58:01.113Z,9.40
2022-08-20T01:59:07.809Z,9.70
2022-08-20T02:00:20.248Z,10.45
2022-08-20T02:01:28.414Z,10.23
2022-08-20T02:02:30.605Z,10.43
2022-08-20T02:03:38.827Z,10.00
2022-08-20T02:04:43.840Z,10.50
2022-08-20T02:05:45.865Z,10.52
2022-08-20T02:06:56.195Z,12.13
2022-08-20T02:08:00.610Z,10.55
2022-08-20T02:09:08.890Z,9.35
2022-08-20T02:10:15.452Z,9.90
2022-08-20T02:11:18.492Z,10.27
2022-08-20T02:12:22.895Z,10.43
2022-08-20T02:13:24.949Z,9.07
2022-08-20T02:14:29.016Z,9.90
2022-08-20T02:15:37.137Z,10.45
2022-08-20T02:16:44.052Z,10.30
2022-08-20T02:17:57.646Z,10.13
2022-08-20T02:19:09.625Z,11.60
2022-08-20T02:20:16.122Z,8.70
2022-08-20T02:21:19.914Z,10.23
2022-08-20T02:22:26.076Z,11.30
2022-08-20T02:23:29.362Z,10.82
2022-08-20T02:24:31.426Z,10.30
2022-08-20T02:25:37.221Z,11.30
2022-08-20T02:26:39.880Z,11.05
2022-08-20T02:27:46.625Z,10.52
2022-08-20T02:28:51.012Z,11.30
2022-08-20T02:29:54.568Z,10.02
2022-08-20T02:30:56.725Z,11.48
2022-08-20T02:32:24.828Z,11.30
2022-08-20T02:33:24.252Z,10.13
2022-08-20T02:34:27.736Z,11.82
2022-08-20T02:35:30.926Z,10.20
2022-08-20T02:36:36.418Z,10.32
2022-08-20T02:37:39.613Z,11.68
2022-08-20T02:38:43.599Z,9.25
2022-08-20T02:39:46.506Z,10.32
2022-08-20T02:40:50.631Z,11.65
2022-08-20T02:41:52.877Z,10.05
2022-08-20T02:42:57.385Z,11.20
2022-08-20T02:43:59.349Z,9.88
2022-08-20T02:45:03.247Z,10.32
2022-08-20T02:46:07.087Z,11.40
2022-08-20T02:47:10.009Z,11.43
2022-08-20T02:48:21.498Z,10.40
2022-08-20T02:49:26.797Z,10.55
2022-08-20T02:50:28.841Z,9.90
2022-08-20T02:51:32.014Z,10.27
2022-08-20T02:52:33.964Z,9.98
2022-08-20T02:53:39.799Z,12.85
2022-08-20T02:54:41.766Z,10.50
2022-08-20T02:55:44.926Z,10.57
2022-08-20T02:56:48.170Z,9.30
2022-08-20T02:57:50.871Z,10.75
2022-08-20T02:58:58.287Z,10.18
2022-08-20T03:00:02.156Z,10.45
2022-08-20T03:01:09.657Z,9.95
2022-08-20T03:02:12.098Z,11.18
2022-08-20T03:03:16.027Z,10.20
2022-08-20T03:04:18.075Z,10.48
2022-08-20T03:05:21.148Z,12.27
2022-08-20T03:06:23.839Z,11.15
2022-08-20T03:07:27.219Z,10.95
2022-08-20T03:08:29.436Z,10.45
2022-08-20T03:09:32.425Z,9.55
2022-08-20T03:10:37.171Z,11.40
2022-08-20T03:11:40.480Z,11.10
2022-08-20T03:12:42.910Z,9.98
2022-08-20T03:13:45.925Z,10.30
2022-08-20T03:14:49.241Z,9.80
2022-08-20T03:15:58.871Z,10.57
2022-08-20T03:17:01.566Z,11.23
2022-08-20T03:18:04.661Z,11.18
2022-08-20T03:19:08.490Z,9.95
2022-08-20T03:20:11.712Z,10.43
2022-08-20T03:21:15.028Z,9.88
2022-08-20T03:22:16.977Z,10.13
2022-08-20T03:23:21.490Z,11.48
2022-08-20T03:24:23.510Z,10.55
2022-08-20T03:25:26.872Z,10.25
2022-08-20T03:26:28.941Z,10.13
2022-08-20T03:27:36.263Z,10.25
2022-08-20T03:28:40.167Z,10.73
2022-08-20T03:29:42.129Z,10.02
2022-08-20T03:30:47.436Z,10.13
2022-08-20T03:31:49.389Z,11.65
2022-08-20T03:32:52.969Z,10.70
2022-08-20T03:33:54.973Z,10.98
2022-08-20T03:34:57.901Z,9.65
2022-08-20T03:36:00.014Z,10.13
2022-08-20T03:37:03.069Z,10.60
2022-08-20T03:38:08.207Z,9.50
2022-08-20T03:39:13.277Z,9.57
2022-08-20T03:40:17.878Z,10.55
2022-08-20T03:41:21.478Z,11.40
2022-08-20T03:42:23.504Z,10.60
2022-08-20T03:43:26.530Z,10.68
2022-08-20T03:44:28.611Z,10.43
2022-08-20T03:45:32.489Z,10.10
2022-08-20T03:46:36.100Z,10.43
2022-08-20T03:47:39.392Z,10.30
2022-08-20T03:48:42.079Z,10.10
2022-08-20T03:49:45.050Z,10.65
2022-08-20T03:50:48.851Z,10.88
2022-08-20T03:51:57.502Z,9.90
2022-08-20T03:53:01.597Z,10.02
2022-08-20T03:54:05.785Z,10.00
2022-08-20T03:55:11.167Z,9.55
2022-08-20T03:56:14.643Z,10.85
2022-08-20T03:57:16.682Z,9.93
2022-08-20T03:58:19.755Z,9.90
2022-08-20T03:59:21.911Z,9.57
2022-08-20T04:00:29.169Z,9.93
2022-08-20T04:01:44.180Z,10.57
2022-08-20T04:02:51.074Z,10.00
2022-08-20T04:03:55.208Z,9.85
2022-08-20T04:04:58.303Z,11.32
2022-08-20T04:06:01.455Z,9.80
2022-08-20T04:07:10.431Z,9.75
2022-08-20T04:08:16.987Z,9.68
2022-08-20T04:09:19.055Z,9.52
2022-08-20T04:10:24.591Z,8.82
2022-08-20T04:11:26.567Z,9.73
2022-08-20T04:12:30.064Z,10.25
2022-08-20T04:13:32.097Z,9.05
2022-08-20T04:14:36.211Z,10.02
2022-08-20T04:15:38.544Z,10.43
2022-08-20T04:16:41.632Z,9.93
2022-08-20T04:17:47.962Z,9.07
2022-08-20T04:19:01.803Z,10.15
2022-08-20T04:20:06.600Z,10.40
2022-08-20T04:21:09.643Z,10.27
2022-08-20T04:22:13.644Z,9.70
2022-08-20T04:23:16.664Z,9.38
2022-08-20T04:24:22.520Z,10.25
2022-08-20T04:25:40.648Z,8.23
2022-08-20T04:26:45.300Z,8.52
2022-08-20T04:27:50.922Z,10.10
2022-08-20T04:28:53.033Z,9.23
2022-08-20T04:29:56.324Z,11.35
2022-08-20T04:31:00.940Z,9.40
2022-08-20T04:32:05.978Z,10.43
2022-08-20T04:33:08.367Z,9.30
2022-08-20T04:34:12.815Z,10.32
2022-08-20T04:35:18.019Z,9.77
2022-08-20T04:36:21.040Z,9.63
2022-08-20T04:37:24.019Z,9.43
2022-08-20T04:38:27.076Z,9.00
2022-08-20T04:40:05.210Z,8.50
2022-08-20T04:41:08.633Z,9.02
2022-08-20T04:42:25.314Z,9.20
2022-08-20T04:43:30.803Z,8.70
2022-08-20T04:44:33.024Z,8.65
2022-08-20T04:45:35.999Z,9.30
2022-08-20T04:46:39.222Z,9.80
2022-08-20T04:47:42.667Z,8.75
2022-08-20T04:48:48.991Z,9.30
2022-08-20T04:50:00.317Z,8.75
2022-08-20T04:51:05.888Z,9.20
2022-08-20T04:52:11.331Z,8.38
2022-08-20T04:53:16.790Z,9.00
2022-08-20T04:54:19.012Z,8.40
2022-08-20T04:55:22.501Z,9.07
2022-08-20T04:56:28.733Z,9.25
2022-08-20T04:57:31.738Z,8.63
2022-08-20T04:58:37.809Z,9.38
2022-08-20T04:59:40.410Z,9.73
2022-08-20T05:00:46.856Z,10.23
2022-08-20T05:01:48.878Z,8.70
2022-08-20T05:02:51.858Z,8.90
2022-08-20T05:03:55.127Z,9.65
2022-08-20T05:04:59.612Z,9.40
2022-08-20T05:06:01.937Z,8.65
2022-08-20T05:07:05.492Z,8.73
2022-08-20T05:08:19.832Z,9.57
2022-08-20T05:09:23.183Z,8.70
2022-08-20T05:10:25.425Z,10.05
2022-08-20T05:11:35.902Z,9.70
2022-08-20T05:12:41.018Z,9.80
2022-08-20T05:13:44.061Z,9.13
2022-08-20T05:14:47.113Z,8.85
2022-08-20T05:15:50.688Z,9.20
2022-08-20T05:16:57.525Z,9.60
2022-08-20T05:18:02.504Z,8.27
2022-08-20T05:19:05.931Z,8.52
2022-08-20T05:20:12.395Z,8.77
2022-08-20T05:21:15.605Z,8.65
2022-08-20T05:22:18.443Z,8.68
2022-08-20T05:23:23.911Z,8.65
2022-08-20T05:24:25.997Z,8.55
2022-08-20T05:25:30.431Z,9.30
2022-08-20T05:26:33.456Z,9.65
2022-08-20T05:27:36.487Z,8.40
2022-08-20T05:28:54.059Z,8.73
2022-08-20T05:30:05.757Z,8.70
2022-08-20T05:31:09.547Z,8.20
2022-08-20T05:32:12.807Z,8.40
2022-08-20T05:33:18.891Z,8.32
2022-08-20T05:34:21.796Z,9.52
2022-08-20T05:35:25.182Z,8.02
2022-08-20T05:36:28.186Z,9.07
2022-08-20T05:37:30.226Z,8.02
2022-08-20T05:38:37.179Z,8.48
2022-08-20T05:39:39.209Z,7.70
2022-08-20T05:40:43.871Z,8.30
2022-08-20T05:41:49.239Z,8.35
2022-08-20T05:42:51.422Z,7.65
2022-08-20T05:43:54.473Z,7.80
2022-08-20T05:44:56.560Z,8.00
2022-08-20T05:45:59.580Z,8.75
2022-08-20T05:47:04.181Z,7.93
2022-08-20T05:48:08.114Z,7.20
2022-08-20T05:49:11.901Z,8.35
2022-08-20T05:50:19.870Z,7.35
2022-08-20T05:51:26.969Z,8.60
2022-08-20T05:52:30.373Z,7.35
2022-08-20T05:53:34.396Z,9.75
2022-08-20T05:54:38.295Z,8.48
2022-08-20T05:55:41.548Z,8.98
2022-08-20T05:56:43.711Z,7.55
2022-08-20T05:57:46.990Z,8.32
2022-08-20T05:58:48.955Z,8.10
2022-08-20T05:59:55.312Z,9.15
2022-08-20T06:00:59.030Z,8.90
2022-08-20T06:02:02.206Z,8.98
2022-08-20T06:03:23.213Z,8.50
2022-08-20T06:04:25.169Z,8.70
2022-08-20T06:05:27.499Z,8.50
2022-08-20T06:06:46.341Z,8.50
2022-08-20T06:07:50.700Z,8.55
2022-08-20T06:08:57.771Z,8.20
2022-08-20T06:10:00.793Z,8.27
2022-08-20T06:11:04.549Z,7.70
2022-08-20T06:12:09.081Z,7.90
2022-08-20T06:13:13.744Z,8.13
2022-08-20T06:14:16.801Z,8.43
2022-08-20T06:15:20.630Z,7.90
2022-08-20T06:16:29.010Z,7.45
2022-08-20T06:17:39.324Z,8.10
2022-08-20T06:18:42.740Z,7.90
2022-08-20T06:19:46.961Z,8.27
2022-08-20T06:20:50.488Z,8.13
2022-08-20T06:21:53.953Z,7.40
2022-08-20T06:22:57.799Z,8.60
2022-08-20T06:24:00.467Z,7.65
2022-08-20T06:25:06.722Z,7.53
2022-08-20T06:26:09.304Z,6.97
2022-08-20T06:27:15.731Z,7.18
2022-08-20T06:28:19.096Z,7.00
2022-08-20T06:29:21.103Z,7.60
2022-08-20T06:30:24.271Z,7.25
2022-08-20T06:31:27.396Z,6.70
2022-08-20T06:32:32.697Z,8.32
2022-08-20T06:33:34.985Z,8.48
2022-08-20T06:34:38.046Z,6.75
2022-08-20T06:35:54.906Z,6.75
2022-08-20T06:36:59.370Z,7.70
2022-08-20T06:38:03.660Z,6.78
2022-08-20T06:39:05.645Z,7.25
2022-08-20T06:40:12.307Z,8.15
2022-08-20T06:41:14.389Z,7.88
2022-08-20T06:42:21.012Z,7.35
2022-08-20T06:43:24.214Z,8.30
2022-08-20T06:44:28.284Z,7.40
2022-08-20T06:45:34.003Z,6.97
2022-08-20T06:46:36.626Z,7.00
2022-08-20T06:47:41.812Z,6.82
2022-08-20T06:48:43.723Z,8.32
2022-08-20T06:49:47.522Z,6.65
2022-08-20T06:50:50.871Z,7.05
2022-08-20T06:51:53.011Z,7.00
2022-08-20T06:52:57.945Z,6.55
2022-08-20T06:54:00.353Z,6.72
2022-08-20T06:55:03.400Z,6.90
2022-08-20T06:56:05.830Z,8.27
2022-08-20T06:57:08.816Z,7.18
2022-08-20T06:58:30.492Z,6.97
2022-08-20T06:59:35.333Z,6.75
2022-08-20T07:00:40.619Z,7.25
2022-08-20T07:01:43.682Z,7.13
2022-08-20T07:02:47.170Z,7.20
2022-08-20T07:03:55.612Z,7.15
2022-08-20T07:04:58.095Z,6.80
2022-08-20T07:06:01.201Z,7.35
2022-08-20T07:07:04.225Z,6.90
2022-08-20T07:08:09.733Z,6.78
2022-08-20T07:09:11.756Z,6.85
2022-08-20T07:10:16.847Z,6.53
2022-08-20T07:11:24.956Z,6.60
2022-08-20T07:12:30.571Z,6.95
2022-08-20T07:13:32.871Z,7.00
2022-08-20T07:14:35.993Z,8.05
2022-08-20T07:15:39.696Z,7.28
2022-08-20T07:16:41.643Z,6.85
2022-08-20T07:17:50.684Z,7.30
2022-08-20T07:18:53.733Z,7.35
2022-08-20T07:19:55.956Z,7.47
2022-08-20T07:20:59.938Z,6.97
2022-08-20T07:22:02.109Z,8.02
2022-08-20T07:23:12.172Z,8.30
2022-08-20T07:24:15.296Z,6.60
2022-08-20T07:25:20.500Z,7.03
2022-08-20T07:26:24.803Z,6.82
2022-08-20T07:27:26.931Z,5.90
2022-08-20T07:28:31.985Z,6.22
2022-08-20T07:29:49.921Z,7.88
2022-08-20T07:31:13.677Z,7.03
2022-08-20T07:32:36.848Z,6.80
2022-08-20T07:33:40.726Z,6.03
2022-08-20T07:34:43.665Z,6.95
2022-08-20T07:35:48.977Z,6.13
2022-08-20T07:36:51.035Z,6.57
2022-08-20T07:37:55.199Z,5.65
2022-08-20T07:38:58.824Z,7.25
2022-08-20T07:40:02.394Z,6.38
2022-08-20T07:41:08.018Z,6.00
2022-08-20T07:42:10.127Z,6.63
2022-08-20T07:43:14.208Z,6.80
2022-08-20T07:44:17.467Z,7.28
2022-08-20T07:45:20.997Z,6.80
2022-08-20T07:46:24.828Z,6.88
2022-08-20T07:47:36.081Z,5.95
2022-08-20T07:48:41.870Z,6.65
2022-08-20T07:49:44.037Z,5.28
2022-08-20T07:50:50.058Z,6.10
2022-08-20T07:51:52.048Z,5.60
2022-08-20T07:52:55.159Z,6.07
2022-08-20T07:53:59.653Z,6.57
2022-08-20T07:55:02.973Z,6.45
2022-08-20T07:56:08.361Z,5.93
2022-08-20T07:57:12.195Z,5.82
2022-08-20T07:58:17.239Z,5.75
2022-08-20T07:59:20.693Z,6.45
2022-08-20T08:00:26.004Z,5.40
2022-08-20T08:01:31.557Z,5.20
2022-08-20T08:02:34.163Z,7.10
2022-08-20T08:03:48.938Z,6.25
2022-08-20T08:04:53.594Z,6.35
2022-08-20T08:05:56.735Z,5.95
2022-08-20T08:07:00.537Z,5.75
2022-08-20T08:08:07.264Z,6.40
2022-08-20T08:09:15.493Z,6.03
2022-08-20T08:10:23.309Z,6.68
2022-08-20T08:11:25.287Z,6.47
2022-08-20T08:12:36.499Z,5.45
2022-08-20T08:13:41.145Z,7.38
2022-08-20T08:14:47.130Z,6.00
2022-08-20T08:15:50.390Z,6.32
2022-08-20T08:16:54.867Z,6.10
2022-08-20T08:18:00.707Z,5.80
2022-08-20T08:19:07.610Z,6.07
2022-08-20T08:20:12.231Z,6.13
2022-08-20T08:21:16.433Z,5.70
2022-08-20T08:22:21.099Z,6.05
2022-08-20T08:23:24.736Z,6.72
2022-08-20T08:24:36.396Z,6.18
2022-08-20T08:25:38.846Z,6.13
2022-08-20T08:26:41.824Z,6.82
2022-08-20T08:27:45.671Z,5.80
2022-08-20T08:28:49.134Z,7.10
2022-08-20T08:29:52.144Z,6.15
2022-08-20T08:30:54.137Z,6.65
2022-08-20T08:31:57.767Z,6.22
2022-08-20T08:33:19.501Z,6.45
2022-08-20T08:34:25.073Z,6.70
2022-08-20T08:35:27.026Z,5.68
2022-08-20T08:36:30.203Z,6.50
2022-08-20T08:37:33.708Z,5.90
2022-08-20T08:38:40.241Z,6.20
2022-08-20T08:39:43.657Z,6.00
2022-08-20T08:40:48.316Z,5.50
2022-08-20T08:41:57.235Z,5.57
2022-08-20T08:43:02.849Z,6.18
2022-08-20T08:44:10.760Z,5.90
2022-08-20T08:45:16.885Z,5.30
2022-08-20T08:46:23.728Z,5.95
2022-08-20T08:47:29.339Z,6.25
2022-08-20T08:48:36.445Z,6.05
2022-08-20T08:49:38.538Z,5.55
2022-08-20T08:50:53.420Z,6.13
2022-08-20T08:52:01.947Z,5.75
2022-08-20T08:53:05.951Z,6.15
2022-08-20T08:54:17.685Z,5.75
2022-08-20T08:55:22.981Z,6.93
2022-08-20T08:56:29.547Z,6.30
2022-08-20T08:57:32.764Z,6.28
2022-08-20T08:58:35.351Z,6.20
2022-08-20T09:00:02.438Z,6.60
2022-08-20T09:01:06.954Z,6.25
2022-08-20T09:02:20.441Z,5.80
2022-08-20T09:03:28.207Z,6.13
2022-08-20T09:04:34.779Z,6.60
2022-08-20T09:05:41.324Z,6.38
2022-08-20T09:06:44.237Z,6.88
2022-08-20T09:07:51.168Z,6.15
2022-08-20T09:09:01.177Z,6.68
2022-08-20T09:10:04.046Z,6.05
2022-08-20T09:11:10.541Z,5.28
2022-08-20T09:12:14.990Z,5.55
2022-08-20T09:13:18.090Z,6.88
2022-08-20T09:14:20.594Z,5.95
2022-08-20T09:15:23.724Z,5.30
2022-08-20T09:16:27.979Z,7.18
2022-08-20T09:17:37.221Z,5.78
2022-08-20T09:18:40.485Z,6.07
2022-08-20T09:19:42.437Z,6.95
2022-08-20T09:20:45.381Z,6.25
2022-08-20T09:21:47.380Z,7.18
2022-08-20T09:22:50.345Z,6.35
2022-08-20T09:23:53.875Z,6.40
2022-08-20T09:24:57.074Z,5.32
2022-08-20T09:25:59.317Z,7.90
2022-08-20T09:27:04.293Z,6.45
2022-08-20T09:28:06.281Z,7.38
2022-08-20T09:29:09.890Z,6.60
2022-08-20T09:30:13.129Z,6.07
2022-08-20T09:31:16.858Z,6.43
2022-08-20T09:32:23.632Z,6.78
2022-08-20T09:33:27.258Z,6.30
2022-08-20T09:34:29.274Z,7.18
2022-08-20T09:35:32.542Z,8.45
2022-08-20T09:36:35.439Z,6.88
2022-08-20T09:37:39.658Z,6.80
2022-08-20T09:38:41.704Z,6.95
2022-08-20T09:39:45.054Z,6.93
2022-08-20T09:40:47.415Z,7.15
2022-08-20T09:41:50.344Z,8.05
2022-08-20T09:42:53.927Z,5.93
2022-08-20T09:43:56.955Z,5.97
2022-08-20T09:45:11.506Z,6.15
2022-08-20T09:46:13.710Z,6.55
2022-08-20T09:47:17.404Z,6.15
2022-08-20T09:48:20.509Z,7.57
2022-08-20T09:49:31.701Z,6.75
2022-08-20T09:50:36.968Z,7.25
2022-08-20T09:51:39.377Z,6.97
2022-08-20T09:52:44.238Z,6.63
2022-08-20T09:53:46.584Z,6.65
2022-08-20T09:54:50.437Z,7.10
2022-08-20T09:55:55.666Z,6.93
2022-08-20T09:57:00.242Z,7.05
2022-08-20T09:58:08.274Z,6.90
2022-08-20T09:59:11.303Z,8.25
2022-08-20T10:00:14.485Z,7.18
2022-08-20T10:01:20.564Z,6.90
2022-08-20T10:02:22.674Z,7.65
2022-08-20T10:03:26.112Z,7.28
2022-08-20T10:04:28.277Z,7.88
2022-08-20T10:05:31.663Z,7.07
2022-08-20T10:06:39.596Z,5.78
2022-08-20T10:07:43.265Z,7.15
2022-08-20T10:08:45.642Z,6.68
2022-08-20T10:09:48.793Z,7.32
2022-08-20T10:10:51.959Z,7.57
2022-08-20T10:11:53.936Z,7.60
2022-08-20T10:12:56.893Z,7.40
2022-08-20T10:14:00.271Z,8.15
2022-08-20T10:15:03.286Z,7.63
2022-08-20T10:16:05.810Z,6.60
2022-08-20T10:17:09.002Z,7.32
2022-08-20T10:18:12.303Z,7.50
2022-08-20T10:19:14.536Z,7.97
2022-08-20T10:20:18.397Z,6.00
2022-08-20T10:21:20.822Z,7.07
2022-08-20T10:22:24.479Z,7.97
2022-08-20T10:23:26.529Z,6.85
2022-08-20T10:24:30.105Z,7.20
2022-08-20T10:25:33.581Z,8.25
2022-08-20T10:26:35.583Z,6.55
2022-08-20T10:27:39.825Z,6.70
2022-08-20T10:28:42.089Z,7.88
2022-08-20T10:29:47.095Z,7.28
2022-08-20T10:30:49.283Z,7.40
2022-08-20T10:31:52.870Z,7.53
2022-08-20T10:32:55.031Z,7.60
2022-08-20T10:33:58.585Z,8.40
2022-08-20T10:35:00.711Z,6.88
2022-08-20T10:36:07.724Z,8.20
2022-08-20T10:37:10.186Z,7.95
2022-08-20T10:38:13.369Z,7.55
2022-08-20T10:39:16.269Z,7.20
2022-08-20T10:40:19.367Z,8.00
2022-08-20T10:41:22.417Z,6.93
2022-08-20T10:42:24.472Z,7.95
2022-08-20T10:43:28.293Z,8.05
2022-08-20T10:44:31.301Z,7.70
2022-08-20T10:45:35.667Z,9.60
2022-08-20T10:46:38.489Z,8.68
2022-08-20T10:47:42.295Z,8.77
2022-08-20T10:48:44.422Z,9.00
2022-08-20T10:49:48.262Z,9.13
2022-08-20T10:50:51.581Z,8.27
2022-08-20T10:51:53.577Z,8.48
2022-08-20T10:52:56.629Z,8.48
2022-08-20T10:53:58.764Z,7.72
2022-08-20T10:55:04.233Z,7.90
2022-08-20T10:56:06.931Z,9.50
2022-08-20T10:57:15.340Z,9.20
2022-08-20T10:58:18.358Z,8.82
2022-08-20T10:59:22.213Z,8.52
2022-08-20T11:00:25.319Z,8.88
2022-08-20T11:01:32.807Z,9.45
2022-08-20T11:02:37.805Z,9.35
2022-08-20T11:03:40.016Z,8.45
2022-08-20T11:04:43.384Z,8.50
2022-08-20T11:05:45.926Z,7.88
2022-08-20T11:06:49.309Z,8.52
2022-08-20T11:07:56.161Z,8.15
2022-08-20T11:08:59.826Z,8.88
2022-08-20T11:10:02.134Z,9.70
2022-08-20T11:11:06.906Z,8.57
2022-08-20T11:12:09.677Z,9.63
2022-08-20T11:13:12.725Z,8.52
2022-08-20T11:14:14.700Z,7.93
2022-08-20T11:15:18.111Z,9.23
2022-08-20T11:16:21.125Z,9.10
2022-08-20T11:17:28.362Z,8.55
2022-08-20T11:18:32.972Z,8.60
2022-08-20T11:19:40.250Z,9.63
2022-08-20T11:20:42.242Z,7.25
2022-08-20T11:21:45.198Z,8.27
2022-08-20T11:22:47.583Z,7.38
2022-08-20T11:23:50.625Z,9.23
2022-08-20T11:24:52.931Z,8.95
2022-08-20T11:25:56.314Z,7.63
2022-08-20T11:26:58.964Z,7.78
2022-08-20T11:28:02.962Z,7.40
2022-08-20T11:29:05.342Z,6.82
2022-08-20T11:30:12.663Z,7.72
2022-08-20T11:31:15.695Z,7.25
2022-08-20T11:32:18.356Z,6.85
2022-08-20T11:33:23.134Z,8.02
2022-08-20T11:34:25.282Z,7.55
2022-08-20T11:35:49.448Z,7.72
2022-08-20T11:36:53.467Z,7.68
2022-08-20T11:37:56.864Z,7.05
2022-08-20T11:39:00.398Z,8.13
2022-08-20T11:40:02.984Z,8.20
2022-08-20T11:41:06.332Z,8.30
2022-08-20T11:42:08.560Z,6.63
2022-08-20T11:43:16.232Z,6.97
2022-08-20T11:44:21.598Z,7.68
2022-08-20T11:45:23.705Z,6.28
2022-08-20T11:46:28.702Z,6.53
2022-08-20T11:47:33.626Z,6.32
2022-08-20T11:48:39.647Z,6.13
2022-08-20T11:49:41.663Z,7.45
2022-08-20T11:50:45.247Z,6.38
2022-08-20T11:51:49.798Z,7.20
2022-08-20T11:52:53.220Z,6.45
2022-08-20T11:53:56.272Z,6.75
2022-08-20T11:55:00.391Z,6.55
2022-08-20T11:56:03.838Z,6.75
2022-08-20T11:57:06.115Z,6.68
2022-08-20T11:58:09.255Z,6.80
2022-08-20T11:59:11.678Z,7.53
2022-08-20T12:00:19.995Z,6.95
2022-08-20T12:01:34.462Z,6.50
2022-08-20T12:02:37.711Z,8.60
2022-08-20T12:03:42.136Z,8.60
2022-08-20T12:04:44.755Z,9.05
2022-08-20T12:05:48.195Z,8.02
2022-08-20T12:06:50.817Z,7.95
2022-08-20T12:07:54.021Z,6.97
2022-08-20T12:08:57.088Z,9.07
2022-08-20T12:09:59.299Z,6.95
2022-08-20T12:11:03.711Z,6.75
2022-08-20T12:12:06.933Z,7.38
2022-08-20T12:13:09.980Z,8.07
2022-08-20T12:14:13.473Z,7.60
2022-08-20T12:15:15.460Z,7.40
2022-08-20T12:16:19.777Z,7.55
2022-08-20T12:17:23.978Z,8.02
2022-08-20T12:18:27.234Z,6.82
2022-08-20T12:19:30.582Z,7.03
2022-08-20T12:20:33.697Z,7.70
2022-08-20T12:21:36.610Z,7.68
2022-08-20T12:22:39.062Z,6.93
2022-08-20T12:23:42.047Z,7.35
2022-08-20T12:24:44.159Z,7.28
2022-08-20T12:25:49.018Z,7.25
2022-08-20T12:26:50.966Z,7.00
2022-08-20T12:27:54.216Z,6.60
2022-08-20T12:28:56.571Z,6.90
2022-08-20T12:30:01.456Z,6.75
2022-08-20T12:31:05.257Z,7.28
2022-08-20T12:32:08.236Z,7.25
2022-08-20T12:33:11.449Z,6.72
2022-08-20T12:34:13.642Z,7.30
2022-08-20T12:35:21.666Z,6.57
2022-08-20T12:36:24.642Z,7.60
2022-08-20T12:37:29.218Z,7.47
2022-08-20T12:38:32.193Z,8.00
2022-08-20T12:39:35.434Z,7.63
2022-08-20T12:40:38.701Z,7.75
2022-08-20T12:41:40.691Z,7.38
2022-08-20T12:42:45.688Z,7.30
2022-08-20T12:43:48.815Z,7.85
2022-08-20T12:44:50.832Z,6.97
2022-08-20T12:45:54.180Z,7.22
2022-08-20T12:47:06.523Z,6.57
2022-08-20T12:48:12.902Z,6.45
2022-08-20T12:49:14.910Z,6.80
2022-08-20T12:50:21.483Z,7.45
2022-08-20T12:51:23.463Z,6.57
2022-08-20T12:52:26.910Z,7.22
2022-08-20T12:53:30.117Z,7.30
2022-08-20T12:54:32.293Z,8.45
2022-08-20T12:55:36.014Z,6.50
2022-08-20T12:56:38.219Z,7.63
2022-08-20T12:57:45.555Z,7.65
2022-08-20T12:58:47.568Z,8.18
2022-08-20T12:59:50.754Z,6.80
2022-08-20T13:00:53.976Z,7.38
2022-08-20T13:01:56.795Z,6.70
2022-08-20T13:03:02.744Z,7.28
2022-08-20T13:04:04.951Z,7.00
2022-08-20T13:05:09.108Z,7.15
2022-08-20T13:06:12.959Z,6.03
2022-08-20T13:07:16.883Z,6.72
2022-08-20T13:08:19.658Z,6.10
2022-08-20T13:09:23.025Z,6.70
2022-08-20T13:10:27.987Z,7.07
2022-08-20T13:11:29.968Z,7.75
2022-08-20T13:12:33.505Z,7.47
2022-08-20T13:13:35.611Z,7.00
2022-08-20T13:14:40.055Z,6.80
2022-08-20T13:15:42.059Z,6.95
2022-08-20T13:16:45.184Z,7.93
2022-08-20T13:17:52.311Z,7.25
2022-08-20T13:18:55.493Z,6.85
2022-08-20T13:19:57.424Z,6.70
2022-08-20T13:21:00.499Z,6.15
2022-08-20T13:22:04.458Z,7.90
2022-08-20T13:23:08.012Z,7.13
2022-08-20T13:24:12.243Z,6.72
2022-08-20T13:25:15.796Z,7.15
2022-08-20T13:26:18.993Z,7.15
2022-08-20T13:27:22.672Z,6.63
2022-08-20T13:28:25.986Z,6.05
2022-08-20T13:29:28.011Z,7.00
2022-08-20T13:30:31.710Z,5.90
2022-08-20T13:31:33.893Z,6.15
2022-08-20T13:32:36.940Z,4.70
2022-08-20T13:33:40.209Z,3.80
2022-08-20T13:34:43.647Z,3.25
2022-08-20T13:35:46.774Z,3.90
2022-08-20T13:36:48.727Z,3.80
2022-08-20T13:37:53.425Z,3.33
2022-08-20T13:38:55.407Z,3.20
2022-08-20T13:39:59.759Z,3.10
2022-08-20T13:41:03.490Z,3.42
2022-08-20T13:42:06.298Z,2.20
2022-08-20T13:43:11.899Z,3.38
2022-08-20T13:44:14.159Z,2.90
2022-08-20T13:45:17.530Z,3.00
2022-08-20T13:46:19.591Z,3.33
2022-08-20T13:47:26.495Z,2.70
2022-08-20T13:48:29.187Z,3.20
2022-08-20T13:49:33.835Z,2.60
2022-08-20T13:50:36.876Z,2.65
2022-08-20T13:51:40.058Z,2.60
2022-08-20T13:52:43.216Z,2.60
2022-08-20T13:53:47.649Z,1.60
2022-08-20T13:54:49.715Z,2.40
2022-08-20T13:55:53.599Z,2.67
2022-08-20T13:57:05.317Z,2.35
2022-08-20T13:58:08.810Z,2.40
2022-08-20T13:59:12.318Z,2.35
2022-08-20T14:00:20.447Z,2.20
2022-08-20T14:01:23.768Z,2.58
2022-08-20T14:02:26.771Z,2.50
2022-08-20T14:03:29.953Z,2.40
2022-08-20T14:04:31.992Z,1.90
2022-08-20T14:05:35.479Z,2.00
2022-08-20T14:06:37.749Z,2.08
2022-08-20T14:07:40.870Z,1.90
2022-08-20T14:08:43.951Z,2.20
2022-08-20T14:09:49.585Z,2.17
2022-08-20T14:10:53.031Z,2.75
2022-08-20T14:11:55.763Z,1.80
2022-08-20T14:12:58.806Z,2.08
2022-08-20T14:14:01.052Z,2.20
2022-08-20T14:15:04.629Z,2.53
2022-08-20T14:16:21.393Z,2.40
2022-08-20T14:17:30.988Z,2.10